Pagrindinis puslapis
METAR-TAF:

METAR-TAF

Oro uostai :

Giumri, Armėnija

platuma: 40-45-01N, ilguma: 043-51-33E, Aukštis: 1524 m

Dabartinis oras

Ataskaita buvo paskelbta 21 minutes, ne 14:00 UTC
Vėjas 8 kt iš Pietų
Temperatūra 22°C
Drėgmė 25%
Slėgis 1015 hPa
Matomumas 10 km arba daugiau

METAR: UDSG 121400Z 17008KT 9999 NSC 22/01 Q1015 R02/CLRD70 NOSIG

Laikas: 18:21 (14:21 UTC)

Prognozė

Ataskaita buvo paskelbta 3 valandos ir 14 minutes, ne 11:07 UTC
Prognozė galioja nuo 12 metu 12 UTC su 13 metu 12 UTC
Vėjas 6 kt iš Pietų/Pietvakarių
Matomumas 10 km arba daugiau
Laikinai
nuo 12 metu 12 UTC su 12 metu 20 UTC
Vėjas 16 kt iš Pietų/Pietvakarių
Mažai debesys ne aukštis 4000 ft

TAF: UDSG 121107Z 1212/1312 20006KT 9999 NSC TEMPO 1212/1220 20016KT FEW040

Orai ataskaitas ir orų prognozės (METAR, TAF).

turimą stotys yra geltonos ir raudonos taškus žemėlapyje.

Perkelti pele per norėdami pamatyti stoties vardą.

Tada spustelėkite, norėdami matyti oro stebėjimo ir prognozės.

Norėdami pakeisti žemėlapį: spustelėkite ant žalios mygtukų su juodo kryžiaus žemyn,; žalią mygtuką su brūkšneliu, jei norite nutolinti; arba žalių rodyklių gretimoms žemėlapius.


METAR-TAF: